sensor_id;sensor_type;location;lat;lon;timestamp;temperature;humidity
7155;DHT22;3619;53.784;10.440;2022-11-20T00:02:39;1.60;99.90
7155;DHT22;3619;53.784;10.440;2022-11-20T00:05:16;1.60;99.90
7155;DHT22;3619;53.784;10.440;2022-11-20T00:08:21;1.60;99.90
7155;DHT22;3619;53.784;10.440;2022-11-20T00:15:27;1.60;99.90
7155;DHT22;3619;53.784;10.440;2022-11-20T00:17:55;1.50;99.90
7155;DHT22;3619;53.784;10.440;2022-11-20T00:20:30;1.60;99.90
7155;DHT22;3619;53.784;10.440;2022-11-20T00:23:01;1.60;99.90
7155;DHT22;3619;53.784;10.440;2022-11-20T00:26:00;1.50;99.90
7155;DHT22;3619;53.784;10.440;2022-11-20T00:32:01;1.60;99.90
7155;DHT22;3619;53.784;10.440;2022-11-20T00:34:50;1.50;99.90
7155;DHT22;3619;53.784;10.440;2022-11-20T00:38:03;1.50;99.90
7155;DHT22;3619;53.784;10.440;2022-11-20T00:41:10;1.50;99.90
7155;DHT22;3619;53.784;10.440;2022-11-20T00:43:44;1.50;99.90
7155;DHT22;3619;53.784;10.440;2022-11-20T00:49:47;1.40;99.90
7155;DHT22;3619;53.784;10.440;2022-11-20T00:52:14;1.50;99.90
7155;DHT22;3619;53.784;10.440;2022-11-20T00:54:41;1.50;99.90
7155;DHT22;3619;53.784;10.440;2022-11-20T00:57:11;1.50;99.90
7155;DHT22;3619;53.784;10.440;2022-11-20T00:59:39;1.50;99.90
7155;DHT22;3619;53.784;10.440;2022-11-20T01:02:41;1.50;99.90
7155;DHT22;3619;53.784;10.440;2022-11-20T01:05:33;1.50;99.90
7155;DHT22;3619;53.784;10.440;2022-11-20T01:08:00;1.50;99.90
7155;DHT22;3619;53.784;10.440;2022-11-20T01:10:30;1.50;99.90
7155;DHT22;3619;53.784;10.440;2022-11-20T01:13:00;1.50;99.90
7155;DHT22;3619;53.784;10.440;2022-11-20T01:15:41;1.50;99.90
7155;DHT22;3619;53.784;10.440;2022-11-20T01:18:11;1.50;99.90
7155;DHT22;3619;53.784;10.440;2022-11-20T01:20:39;1.40;99.90
7155;DHT22;3619;53.784;10.440;2022-11-20T01:23:07;1.50;99.90
7155;DHT22;3619;53.784;10.440;2022-11-20T01:25:35;1.40;99.90
7155;DHT22;3619;53.784;10.440;2022-11-20T01:28:13;1.50;99.90
7155;DHT22;3619;53.784;10.440;2022-11-20T01:31:15;1.40;99.90
7155;DHT22;3619;53.784;10.440;2022-11-20T01:33:50;1.50;99.90
7155;DHT22;3619;53.784;10.440;2022-11-20T01:36:18;1.50;99.90
7155;DHT22;3619;53.784;10.440;2022-11-20T01:38:46;1.50;99.90
7155;DHT22;3619;53.784;10.440;2022-11-20T01:41:14;1.50;99.90
7155;DHT22;3619;53.784;10.440;2022-11-20T01:44:04;1.40;99.90
7155;DHT22;3619;53.784;10.440;2022-11-20T01:46:32;1.40;99.90
7155;DHT22;3619;53.784;10.440;2022-11-20T01:49:12;1.40;99.90
7155;DHT22;3619;53.784;10.440;2022-11-20T01:51:47;1.40;99.90
7155;DHT22;3619;53.784;10.440;2022-11-20T01:54:22;1.40;99.90
7155;DHT22;3619;53.784;10.440;2022-11-20T01:56:55;1.40;99.90
7155;DHT22;3619;53.784;10.440;2022-11-20T01:59:30;1.40;99.90
7155;DHT22;3619;53.784;10.440;2022-11-20T02:02:11;1.40;99.90
7155;DHT22;3619;53.784;10.440;2022-11-20T02:05:16;1.40;99.90
7155;DHT22;3619;53.784;10.440;2022-11-20T02:07:53;1.30;99.90
7155;DHT22;3619;53.784;10.440;2022-11-20T02:10:23;1.30;99.90
7155;DHT22;3619;53.784;10.440;2022-11-20T02:12:50;1.30;99.90
7155;DHT22;3619;53.784;10.440;2022-11-20T02:15:37;1.30;99.90
7155;DHT22;3619;53.784;10.440;2022-11-20T02:18:05;1.30;99.90
7155;DHT22;3619;53.784;10.440;2022-11-20T02:20:32;1.40;99.90
7155;DHT22;3619;53.784;10.440;2022-11-20T02:23:03;1.40;99.90
7155;DHT22;3619;53.784;10.440;2022-11-20T02:25:34;1.40;99.90
7155;DHT22;3619;53.784;10.440;2022-11-20T02:29:13;1.30;99.90
7155;DHT22;3619;53.784;10.440;2022-11-20T02:58:25;1.10;99.90
7155;DHT22;3619;53.784;10.440;2022-11-20T03:04:28;1.10;99.90
7155;DHT22;3619;53.784;10.440;2022-11-20T03:07:09;1.20;99.90
7155;DHT22;3619;53.784;10.440;2022-11-20T03:09:53;1.10;99.90
7155;DHT22;3619;53.784;10.440;2022-11-20T03:12:40;1.10;99.90
7155;DHT22;3619;53.784;10.440;2022-11-20T03:15:09;1.10;99.90
7155;DHT22;3619;53.784;10.440;2022-11-20T03:17:36;1.10;99.90
7155;DHT22;3619;53.784;10.440;2022-11-20T03:20:05;1.10;99.90
7155;DHT22;3619;53.784;10.440;2022-11-20T03:22:33;1.10;99.90
7155;DHT22;3619;53.784;10.440;2022-11-20T03:25:01;1.20;99.90
7155;DHT22;3619;53.784;10.440;2022-11-20T03:27:32;1.20;99.90
7155;DHT22;3619;53.784;10.440;2022-11-20T03:33:30;1.20;99.90
7155;DHT22;3619;53.784;10.440;2022-11-20T03:37:17;1.20;99.90
7155;DHT22;3619;53.784;10.440;2022-11-20T04:43:48;1.10;99.90
7155;DHT22;3619;53.784;10.440;2022-11-20T04:44:17;1.10;99.90
7155;DHT22;3619;53.784;10.440;2022-11-20T04:46:43;1.10;99.90
7155;DHT22;3619;53.784;10.440;2022-11-20T04:49:10;1.10;99.90
7155;DHT22;3619;53.784;10.440;2022-11-20T04:52:11;1.20;99.90
7155;DHT22;3619;53.784;10.440;2022-11-20T04:54:43;1.10;99.90
7155;DHT22;3619;53.784;10.440;2022-11-20T04:57:28;1.10;99.90
7155;DHT22;3619;53.784;10.440;2022-11-20T05:00:21;1.10;99.90
7155;DHT22;3619;53.784;10.440;2022-11-20T05:02:57;1.10;99.90
7155;DHT22;3619;53.784;10.440;2022-11-20T05:05:39;1.10;99.90
7155;DHT22;3619;53.784;10.440;2022-11-20T05:11:38;1.10;99.90
7155;DHT22;3619;53.784;10.440;2022-11-20T05:14:23;1.10;99.90
7155;DHT22;3619;53.784;10.440;2022-11-20T05:17:07;1.10;99.90
7155;DHT22;3619;53.784;10.440;2022-11-20T05:19:52;1.10;99.90
7155;DHT22;3619;53.784;10.440;2022-11-20T05:22:36;1.10;99.90
7155;DHT22;3619;53.784;10.440;2022-11-20T05:25:13;1.10;99.90
7155;DHT22;3619;53.784;10.440;2022-11-20T05:27:40;1.00;99.90
7155;DHT22;3619;53.784;10.440;2022-11-20T05:30:09;1.00;99.90
7155;DHT22;3619;53.784;10.440;2022-11-20T05:32:39;1.00;99.90
7155;DHT22;3619;53.784;10.440;2022-11-20T05:35:07;1.00;99.90
7155;DHT22;3619;53.784;10.440;2022-11-20T05:37:34;1.00;99.90
7155;DHT22;3619;53.784;10.440;2022-11-20T05:40:04;1.00;99.90
7155;DHT22;3619;53.784;10.440;2022-11-20T05:42:51;1.00;99.90
7155;DHT22;3619;53.784;10.440;2022-11-20T05:46:55;1.00;99.90
7155;DHT22;3619;53.784;10.440;2022-11-20T05:48:59;1.00;99.90
7155;DHT22;3619;53.784;10.440;2022-11-20T05:51:44;1.00;99.90
7155;DHT22;3619;53.784;10.440;2022-11-20T06:01:57;1.00;99.90
7155;DHT22;3619;53.784;10.440;2022-11-20T06:21:24;1.10;99.90
7155;DHT22;3619;53.784;10.440;2022-11-20T06:23:52;1.10;99.90
7155;DHT22;3619;53.784;10.440;2022-11-20T06:26:34;1.10;99.90
7155;DHT22;3619;53.784;10.440;2022-11-20T06:29:15;1.10;99.90
7155;DHT22;3619;53.784;10.440;2022-11-20T06:31:50;1.10;99.90
7155;DHT22;3619;53.784;10.440;2022-11-20T06:34:48;1.10;99.90
7155;DHT22;3619;53.784;10.440;2022-11-20T06:37:21;1.10;99.90
7155;DHT22;3619;53.784;10.440;2022-11-20T06:41:36;1.10;99.90
7155;DHT22;3619;53.784;10.440;2022-11-20T06:42:53;1.10;99.90
7155;DHT22;3619;53.784;10.440;2022-11-20T06:45:25;1.10;99.90
7155;DHT22;3619;53.784;10.440;2022-11-20T06:47:54;1.10;99.90
7155;DHT22;3619;53.784;10.440;2022-11-20T06:50:25;1.10;99.90
7155;DHT22;3619;53.784;10.440;2022-11-20T06:52:52;1.20;99.90
7155;DHT22;3619;53.784;10.440;2022-11-20T06:55:18;1.20;99.90
7155;DHT22;3619;53.784;10.440;2022-11-20T06:57:51;1.20;99.90
7155;DHT22;3619;53.784;10.440;2022-11-20T07:00:18;1.10;99.90
7155;DHT22;3619;53.784;10.440;2022-11-20T07:05:12;1.10;99.90
7155;DHT22;3619;53.784;10.440;2022-11-20T07:06:30;1.20;99.90
7155;DHT22;3619;53.784;10.440;2022-11-20T07:08:59;1.10;99.90
7155;DHT22;3619;53.784;10.440;2022-11-20T07:11:35;1.10;99.90
7155;DHT22;3619;53.784;10.440;2022-11-20T07:14:03;1.20;99.90
7155;DHT22;3619;53.784;10.440;2022-11-20T07:16:31;1.20;99.90
7155;DHT22;3619;53.784;10.440;2022-11-20T07:19:10;1.20;99.90
7155;DHT22;3619;53.784;10.440;2022-11-20T07:24:52;1.20;99.90
7155;DHT22;3619;53.784;10.440;2022-11-20T07:29:32;1.20;99.90
7155;DHT22;3619;53.784;10.440;2022-11-20T07:30:42;1.20;99.90
7155;DHT22;3619;53.784;10.440;2022-11-20T07:33:13;1.20;99.90
7155;DHT22;3619;53.784;10.440;2022-11-20T07:35:49;1.20;99.90
7155;DHT22;3619;53.784;10.440;2022-11-20T07:38:33;1.20;99.90
7155;DHT22;3619;53.784;10.440;2022-11-20T07:41:40;1.20;99.90
7155;DHT22;3619;53.784;10.440;2022-11-20T07:44:42;1.20;99.90
7155;DHT22;3619;53.784;10.440;2022-11-20T07:47:48;1.20;99.90
7155;DHT22;3619;53.784;10.440;2022-11-20T07:50:25;1.20;99.90
7155;DHT22;3619;53.784;10.440;2022-11-20T08:00:15;1.10;99.90
7155;DHT22;3619;53.784;10.440;2022-11-20T08:09:22;1.10;99.90
7155;DHT22;3619;53.784;10.440;2022-11-20T08:11:51;1.20;99.90
7155;DHT22;3619;53.784;10.440;2022-11-20T08:14:42;1.20;99.90
7155;DHT22;3619;53.784;10.440;2022-11-20T08:17:44;1.20;99.90
7155;DHT22;3619;53.784;10.440;2022-11-20T08:23:54;1.20;99.90
7155;DHT22;3619;53.784;10.440;2022-11-20T08:30:04;1.30;99.90
7155;DHT22;3619;53.784;10.440;2022-11-20T08:35:59;1.30;99.90
7155;DHT22;3619;53.784;10.440;2022-11-20T08:38:38;1.20;99.90
7155;DHT22;3619;53.784;10.440;2022-11-20T08:41:12;1.20;99.90
7155;DHT22;3619;53.784;10.440;2022-11-20T08:43:53;1.20;99.90
7155;DHT22;3619;53.784;10.440;2022-11-20T08:46:26;1.20;99.90
7155;DHT22;3619;53.784;10.440;2022-11-20T08:48:54;1.30;99.90
7155;DHT22;3619;53.784;10.440;2022-11-20T08:55:01;1.30;99.90
7155;DHT22;3619;53.784;10.440;2022-11-20T08:57:38;1.30;99.90
7155;DHT22;3619;53.784;10.440;2022-11-20T09:00:09;1.40;99.90
7155;DHT22;3619;53.784;10.440;2022-11-20T09:02:37;1.40;99.90
7155;DHT22;3619;53.784;10.440;2022-11-20T09:05:04;1.30;99.90
7155;DHT22;3619;53.784;10.440;2022-11-20T09:07:34;1.30;99.90
7155;DHT22;3619;53.784;10.440;2022-11-20T09:13:12;1.30;99.90
7155;DHT22;3619;53.784;10.440;2022-11-20T09:15:39;1.30;99.90
7155;DHT22;3619;53.784;10.440;2022-11-20T09:18:06;1.40;99.90
7155;DHT22;3619;53.784;10.440;2022-11-20T09:20:33;1.40;99.90
7155;DHT22;3619;53.784;10.440;2022-11-20T09:23:02;1.50;99.90
7155;DHT22;3619;53.784;10.440;2022-11-20T09:25:31;1.40;99.90
7155;DHT22;3619;53.784;10.440;2022-11-20T09:27:58;1.40;99.90
7155;DHT22;3619;53.784;10.440;2022-11-20T09:30:26;1.40;99.90
7155;DHT22;3619;53.784;10.440;2022-11-20T09:33:29;1.40;99.90
7155;DHT22;3619;53.784;10.440;2022-11-20T09:36:13;1.40;99.90
7155;DHT22;3619;53.784;10.440;2022-11-20T10:01:09;1.60;99.90
7155;DHT22;3619;53.784;10.440;2022-11-20T10:04:16;1.50;99.90
7155;DHT22;3619;53.784;10.440;2022-11-20T10:07:04;1.50;99.90
7155;DHT22;3619;53.784;10.440;2022-11-20T10:11:10;1.50;99.90
7155;DHT22;3619;53.784;10.440;2022-11-20T10:26:25;1.90;99.90
7155;DHT22;3619;53.784;10.440;2022-11-20T10:29:10;1.90;99.90
7155;DHT22;3619;53.784;10.440;2022-11-20T10:31:41;1.90;99.90
7155;DHT22;3619;53.784;10.440;2022-11-20T10:34:26;1.90;99.90
7155;DHT22;3619;53.784;10.440;2022-11-20T10:37:06;1.80;99.90
7155;DHT22;3619;53.784;10.440;2022-11-20T10:43:17;1.80;99.90
7155;DHT22;3619;53.784;10.440;2022-11-20T11:06:39;2.10;99.90
7155;DHT22;3619;53.784;10.440;2022-11-20T11:09:27;2.00;99.90
7155;DHT22;3619;53.784;10.440;2022-11-20T11:13:21;1.90;99.90
7155;DHT22;3619;53.784;10.440;2022-11-20T19:08:19;0.30;99.90
7155;DHT22;3619;53.784;10.440;2022-11-20T19:10:46;0.30;99.90
7155;DHT22;3619;53.784;10.440;2022-11-20T19:13:13;0.30;99.90
7155;DHT22;3619;53.784;10.440;2022-11-20T19:15:40;0.30;99.90
7155;DHT22;3619;53.784;10.440;2022-11-20T19:18:07;0.30;99.90
7155;DHT22;3619;53.784;10.440;2022-11-20T19:20:34;0.20;99.90
7155;DHT22;3619;53.784;10.440;2022-11-20T19:23:01;0.20;99.90
7155;DHT22;3619;53.784;10.440;2022-11-20T19:25:31;0.20;99.90
7155;DHT22;3619;53.784;10.440;2022-11-20T19:27:58;0.10;99.90
7155;DHT22;3619;53.784;10.440;2022-11-20T19:30:25;0.10;99.90
7155;DHT22;3619;53.784;10.440;2022-11-20T19:32:52;0.00;99.90
7155;DHT22;3619;53.784;10.440;2022-11-20T19:35:19;-0.10;99.90
7155;DHT22;3619;53.784;10.440;2022-11-20T19:37:47;-0.20;99.90
7155;DHT22;3619;53.784;10.440;2022-11-20T19:40:15;-0.30;99.90
7155;DHT22;3619;53.784;10.440;2022-11-20T19:42:43;-0.40;99.90
7155;DHT22;3619;53.784;10.440;2022-11-20T19:45:10;-0.50;99.90
7155;DHT22;3619;53.784;10.440;2022-11-20T19:47:37;-0.50;99.90
7155;DHT22;3619;53.784;10.440;2022-11-20T19:50:05;-0.60;99.90
7155;DHT22;3619;53.784;10.440;2022-11-20T19:52:33;-0.60;99.90
7155;DHT22;3619;53.784;10.440;2022-11-20T19:54:59;-0.50;99.90
7155;DHT22;3619;53.784;10.440;2022-11-20T19:57:26;-0.50;99.90
7155;DHT22;3619;53.784;10.440;2022-11-20T19:59:54;-0.60;99.90
7155;DHT22;3619;53.784;10.440;2022-11-20T20:02:21;-0.60;99.90
7155;DHT22;3619;53.784;10.440;2022-11-20T20:04:48;-0.70;99.90
7155;DHT22;3619;53.784;10.440;2022-11-20T20:07:15;-0.70;99.90
7155;DHT22;3619;53.784;10.440;2022-11-20T20:09:42;-0.70;99.90
7155;DHT22;3619;53.784;10.440;2022-11-20T20:12:09;-0.70;99.90
7155;DHT22;3619;53.784;10.440;2022-11-20T20:14:36;-0.70;99.90
7155;DHT22;3619;53.784;10.440;2022-11-20T20:17:04;-0.70;99.90
7155;DHT22;3619;53.784;10.440;2022-11-20T20:19:31;-0.80;99.90
7155;DHT22;3619;53.784;10.440;2022-11-20T20:21:57;-0.90;99.90
7155;DHT22;3619;53.784;10.440;2022-11-20T20:24:26;-1.00;99.90
7155;DHT22;3619;53.784;10.440;2022-11-20T20:26:53;-1.00;99.90
7155;DHT22;3619;53.784;10.440;2022-11-20T20:29:19;-1.00;99.90
7155;DHT22;3619;53.784;10.440;2022-11-20T20:31:47;-1.10;99.90
7155;DHT22;3619;53.784;10.440;2022-11-20T20:34:17;-1.00;99.90
7155;DHT22;3619;53.784;10.440;2022-11-20T20:36:44;-1.10;99.90
7155;DHT22;3619;53.784;10.440;2022-11-20T20:39:11;-1.20;99.90
7155;DHT22;3619;53.784;10.440;2022-11-20T20:41:38;-1.30;99.90
7155;DHT22;3619;53.784;10.440;2022-11-20T20:44:05;-1.20;99.90
7155;DHT22;3619;53.784;10.440;2022-11-20T20:46:50;-1.10;99.90
7155;DHT22;3619;53.784;10.440;2022-11-20T20:49:19;-1.10;99.90
7155;DHT22;3619;53.784;10.440;2022-11-20T20:51:47;-1.20;99.90
7155;DHT22;3619;53.784;10.440;2022-11-20T20:54:14;-1.20;99.90
7155;DHT22;3619;53.784;10.440;2022-11-20T20:56:41;-1.20;99.90
7155;DHT22;3619;53.784;10.440;2022-11-20T20:59:08;-1.20;99.90
7155;DHT22;3619;53.784;10.440;2022-11-20T21:01:35;-1.20;99.90
7155;DHT22;3619;53.784;10.440;2022-11-20T21:04:03;-1.30;99.90
7155;DHT22;3619;53.784;10.440;2022-11-20T21:06:31;-1.30;99.90
7155;DHT22;3619;53.784;10.440;2022-11-20T21:08:58;-1.30;99.90
7155;DHT22;3619;53.784;10.440;2022-11-20T21:11:25;-1.30;99.90
7155;DHT22;3619;53.784;10.440;2022-11-20T21:13:54;-1.30;99.90
7155;DHT22;3619;53.784;10.440;2022-11-20T21:16:21;-1.30;99.90
7155;DHT22;3619;53.784;10.440;2022-11-20T21:18:49;-1.40;99.90
7155;DHT22;3619;53.784;10.440;2022-11-20T21:21:18;-1.40;99.90
7155;DHT22;3619;53.784;10.440;2022-11-20T21:24:05;-1.40;99.90
7155;DHT22;3619;53.784;10.440;2022-11-20T21:26:32;-1.40;99.90
7155;DHT22;3619;53.784;10.440;2022-11-20T21:28:59;-1.50;99.90
7155;DHT22;3619;53.784;10.440;2022-11-20T21:31:26;-1.50;99.90
7155;DHT22;3619;53.784;10.440;2022-11-20T21:33:55;-1.60;99.90
7155;DHT22;3619;53.784;10.440;2022-11-20T21:36:24;-1.60;99.90
7155;DHT22;3619;53.784;10.440;2022-11-20T21:38:52;-1.60;99.90
7155;DHT22;3619;53.784;10.440;2022-11-20T21:41:22;-1.60;99.90
7155;DHT22;3619;53.784;10.440;2022-11-20T21:43:50;-1.60;99.90
7155;DHT22;3619;53.784;10.440;2022-11-20T21:46:49;-1.60;99.90
7155;DHT22;3619;53.784;10.440;2022-11-20T21:52:12;-1.70;99.90
7155;DHT22;3619;53.784;10.440;2022-11-20T21:54:53;-1.70;99.90
7155;DHT22;3619;53.784;10.440;2022-11-20T21:57:24;-1.70;99.90
7155;DHT22;3619;53.784;10.440;2022-11-20T21:59:51;-1.70;99.90
7155;DHT22;3619;53.784;10.440;2022-11-20T22:02:22;-1.70;99.90
7155;DHT22;3619;53.784;10.440;2022-11-20T22:05:26;-1.70;99.90
7155;DHT22;3619;53.784;10.440;2022-11-20T22:08:12;-1.70;99.90
7155;DHT22;3619;53.784;10.440;2022-11-20T22:10:55;-1.70;99.90
7155;DHT22;3619;53.784;10.440;2022-11-20T22:16:44;-1.80;99.90
7155;DHT22;3619;53.784;10.440;2022-11-20T22:19:17;-1.80;99.90
7155;DHT22;3619;53.784;10.440;2022-11-20T22:21:46;-1.90;99.90
7155;DHT22;3619;53.784;10.440;2022-11-20T22:27:12;-1.90;99.90
7155;DHT22;3619;53.784;10.440;2022-11-20T22:29:49;-1.90;99.90
7155;DHT22;3619;53.784;10.440;2022-11-20T22:32:30;-1.90;99.90
7155;DHT22;3619;53.784;10.440;2022-11-20T22:35:12;-1.90;99.90
7155;DHT22;3619;53.784;10.440;2022-11-20T22:37:41;-1.90;99.90
7155;DHT22;3619;53.784;10.440;2022-11-20T22:40:20;-2.00;99.90
7155;DHT22;3619;53.784;10.440;2022-11-20T22:42:48;-2.00;99.90
7155;DHT22;3619;53.784;10.440;2022-11-20T22:45:19;-1.90;99.90
7155;DHT22;3619;53.784;10.440;2022-11-20T22:47:49;-1.90;99.90
7155;DHT22;3619;53.784;10.440;2022-11-20T22:50:16;-1.90;99.90
7155;DHT22;3619;53.784;10.440;2022-11-20T22:52:43;-1.90;99.90
7155;DHT22;3619;53.784;10.440;2022-11-20T22:55:24;-1.80;99.90
7155;DHT22;3619;53.784;10.440;2022-11-20T22:58:02;-1.80;99.90
7155;DHT22;3619;53.784;10.440;2022-11-20T23:00:32;-1.70;99.90
7155;DHT22;3619;53.784;10.440;2022-11-20T23:03:16;-1.70;99.90
7155;DHT22;3619;53.784;10.440;2022-11-20T23:05:57;-1.70;99.90
7155;DHT22;3619;53.784;10.440;2022-11-20T23:08:29;-1.80;99.90
7155;DHT22;3619;53.784;10.440;2022-11-20T23:10:58;-1.70;99.90
7155;DHT22;3619;53.784;10.440;2022-11-20T23:13:50;-1.70;99.90
7155;DHT22;3619;53.784;10.440;2022-11-20T23:16:47;-1.70;99.90
7155;DHT22;3619;53.784;10.440;2022-11-20T23:23:14;-1.70;99.90
7155;DHT22;3619;53.784;10.440;2022-11-20T23:25:51;-1.70;99.90
7155;DHT22;3619;53.784;10.440;2022-11-20T23:31:27;-1.70;99.90
7155;DHT22;3619;53.784;10.440;2022-11-20T23:34:04;-1.80;99.90
7155;DHT22;3619;53.784;10.440;2022-11-20T23:36:33;-1.90;99.90
7155;DHT22;3619;53.784;10.440;2022-11-20T23:39:02;-1.80;99.90
7155;DHT22;3619;53.784;10.440;2022-11-20T23:41:42;-1.90;99.90
7155;DHT22;3619;53.784;10.440;2022-11-20T23:44:19;-1.90;99.90
7155;DHT22;3619;53.784;10.440;2022-11-20T23:46:49;-1.90;99.90
7155;DHT22;3619;53.784;10.440;2022-11-20T23:49:16;-1.90;99.90
7155;DHT22;3619;53.784;10.440;2022-11-20T23:55:44;-1.80;99.90
7155;DHT22;3619;53.784;10.440;2022-11-20T23:58:16;-1.90;99.90
